sensor_id;sensor_type;location;lat;lon;timestamp;P1;durP1;ratioP1;P2;durP2;ratioP2
20170;SDS011;10245;51.344;6.620;2023-03-17T00:01:07;7.47;;;2.80;;
20170;SDS011;10245;51.344;6.620;2023-03-17T00:03:31;4.38;;;2.40;;
20170;SDS011;10245;51.344;6.620;2023-03-17T00:05:58;4.20;;;2.20;;
20170;SDS011;10245;51.344;6.620;2023-03-17T00:08:25;4.72;;;2.17;;
20170;SDS011;10245;51.344;6.620;2023-03-17T00:10:50;4.90;;;2.78;;
20170;SDS011;10245;51.344;6.620;2023-03-17T00:13:14;2.53;;;2.22;;
20170;SDS011;10245;51.344;6.620;2023-03-17T00:15:39;6.45;;;2.70;;
20170;SDS011;10245;51.344;6.620;2023-03-17T00:18:02;4.88;;;2.55;;
20170;SDS011;10245;51.344;6.620;2023-03-17T00:20:26;4.60;;;2.50;;
20170;SDS011;10245;51.344;6.620;2023-03-17T00:22:53;3.65;;;2.40;;
20170;SDS011;10245;51.344;6.620;2023-03-17T00:25:20;6.00;;;2.75;;
20170;SDS011;10245;51.344;6.620;2023-03-17T00:27:47;5.93;;;2.63;;
20170;SDS011;10245;51.344;6.620;2023-03-17T00:30:12;3.88;;;2.53;;
20170;SDS011;10245;51.344;6.620;2023-03-17T00:32:37;3.70;;;2.30;;
20170;SDS011;10245;51.344;6.620;2023-03-17T00:35:02;3.85;;;2.22;;
20170;SDS011;10245;51.344;6.620;2023-03-17T00:37:26;4.32;;;2.60;;
20170;SDS011;10245;51.344;6.620;2023-03-17T00:39:49;2.47;;;1.90;;
20170;SDS011;10245;51.344;6.620;2023-03-17T00:42:14;6.65;;;2.33;;
20170;SDS011;10245;51.344;6.620;2023-03-17T00:44:37;4.60;;;2.67;;
20170;SDS011;10245;51.344;6.620;2023-03-17T00:47:01;3.58;;;2.50;;
20170;SDS011;10245;51.344;6.620;2023-03-17T00:49:25;4.95;;;2.55;;
20170;SDS011;10245;51.344;6.620;2023-03-17T00:51:48;6.10;;;2.60;;
20170;SDS011;10245;51.344;6.620;2023-03-17T00:54:14;3.83;;;2.42;;
20170;SDS011;10245;51.344;6.620;2023-03-17T00:56:39;4.15;;;2.90;;
20170;SDS011;10245;51.344;6.620;2023-03-17T00:59:07;5.15;;;2.92;;
20170;SDS011;10245;51.344;6.620;2023-03-17T01:01:42;5.22;;;2.70;;
20170;SDS011;10245;51.344;6.620;2023-03-17T01:04:05;4.35;;;2.70;;
20170;SDS011;10245;51.344;6.620;2023-03-17T01:06:32;6.28;;;2.45;;
20170;SDS011;10245;51.344;6.620;2023-03-17T01:08:56;5.57;;;2.60;;
20170;SDS011;10245;51.344;6.620;2023-03-17T01:11:20;4.15;;;2.80;;
20170;SDS011;10245;51.344;6.620;2023-03-17T01:13:44;5.35;;;2.75;;
20170;SDS011;10245;51.344;6.620;2023-03-17T01:16:09;4.30;;;2.80;;
20170;SDS011;10245;51.344;6.620;2023-03-17T01:18:33;5.65;;;2.45;;
20170;SDS011;10245;51.344;6.620;2023-03-17T01:20:57;4.20;;;2.78;;
20170;SDS011;10245;51.344;6.620;2023-03-17T01:23:20;5.03;;;2.70;;
20170;SDS011;10245;51.344;6.620;2023-03-17T01:25:43;3.42;;;2.40;;
20170;SDS011;10245;51.344;6.620;2023-03-17T01:28:08;6.20;;;2.20;;
20170;SDS011;10245;51.344;6.620;2023-03-17T01:30:35;4.45;;;2.35;;
20170;SDS011;10245;51.344;6.620;2023-03-17T01:33:02;6.70;;;2.42;;
20170;SDS011;10245;51.344;6.620;2023-03-17T01:35:27;4.95;;;2.58;;
20170;SDS011;10245;51.344;6.620;2023-03-17T01:37:51;6.53;;;2.80;;
20170;SDS011;10245;51.344;6.620;2023-03-17T01:40:16;5.32;;;2.40;;
20170;SDS011;10245;51.344;6.620;2023-03-17T01:42:43;4.70;;;2.55;;
20170;SDS011;10245;51.344;6.620;2023-03-17T01:48:26;3.20;;;2.40;;
20170;SDS011;10245;51.344;6.620;2023-03-17T01:50:52;3.83;;;2.60;;
20170;SDS011;10245;51.344;6.620;2023-03-17T01:53:16;4.60;;;2.70;;
20170;SDS011;10245;51.344;6.620;2023-03-17T01:55:41;5.03;;;2.53;;
20170;SDS011;10245;51.344;6.620;2023-03-17T01:58:07;4.03;;;2.40;;
20170;SDS011;10245;51.344;6.620;2023-03-17T02:00:31;3.17;;;2.25;;
20170;SDS011;10245;51.344;6.620;2023-03-17T02:02:56;2.80;;;2.30;;
20170;SDS011;10245;51.344;6.620;2023-03-17T02:05:22;2.97;;;2.30;;
20170;SDS011;10245;51.344;6.620;2023-03-17T02:07:47;5.70;;;2.70;;
20170;SDS011;10245;51.344;6.620;2023-03-17T02:10:11;2.92;;;2.40;;
20170;SDS011;10245;51.344;6.620;2023-03-17T02:12:35;3.72;;;2.60;;
20170;SDS011;10245;51.344;6.620;2023-03-17T02:14:59;6.65;;;2.80;;
20170;SDS011;10245;51.344;6.620;2023-03-17T02:17:24;3.00;;;2.28;;
20170;SDS011;10245;51.344;6.620;2023-03-17T02:19:48;4.88;;;2.38;;
20170;SDS011;10245;51.344;6.620;2023-03-17T02:22:14;4.88;;;2.67;;
20170;SDS011;10245;51.344;6.620;2023-03-17T02:24:40;4.20;;;2.53;;
20170;SDS011;10245;51.344;6.620;2023-03-17T02:27:07;3.35;;;2.25;;
20170;SDS011;10245;51.344;6.620;2023-03-17T02:29:35;3.97;;;1.98;;
20170;SDS011;10245;51.344;6.620;2023-03-17T02:31:58;3.83;;;2.47;;
20170;SDS011;10245;51.344;6.620;2023-03-17T02:34:23;4.72;;;2.20;;
20170;SDS011;10245;51.344;6.620;2023-03-17T02:36:46;4.72;;;2.20;;
20170;SDS011;10245;51.344;6.620;2023-03-17T02:39:12;3.63;;;2.47;;
20170;SDS011;10245;51.344;6.620;2023-03-17T02:41:35;3.38;;;2.65;;
20170;SDS011;10245;51.344;6.620;2023-03-17T02:43:59;3.67;;;2.28;;
20170;SDS011;10245;51.344;6.620;2023-03-17T02:46:22;3.63;;;2.58;;
20170;SDS011;10245;51.344;6.620;2023-03-17T02:48:46;3.22;;;2.30;;
20170;SDS011;10245;51.344;6.620;2023-03-17T02:51:10;2.78;;;2.08;;
20170;SDS011;10245;51.344;6.620;2023-03-17T02:53:34;4.85;;;2.63;;
20170;SDS011;10245;51.344;6.620;2023-03-17T02:55:58;3.63;;;2.17;;
20170;SDS011;10245;51.344;6.620;2023-03-17T02:58:22;3.88;;;2.65;;
20170;SDS011;10245;51.344;6.620;2023-03-17T03:00:45;3.22;;;2.20;;
20170;SDS011;10245;51.344;6.620;2023-03-17T03:03:10;3.33;;;2.15;;
20170;SDS011;10245;51.344;6.620;2023-03-17T03:05:33;5.47;;;2.50;;
20170;SDS011;10245;51.344;6.620;2023-03-17T03:07:57;4.35;;;2.55;;
20170;SDS011;10245;51.344;6.620;2023-03-17T03:10:20;5.82;;;2.70;;
20170;SDS011;10245;51.344;6.620;2023-03-17T03:12:45;3.58;;;2.20;;
20170;SDS011;10245;51.344;6.620;2023-03-17T03:15:09;5.70;;;2.72;;
20170;SDS011;10245;51.344;6.620;2023-03-17T03:17:33;6.00;;;2.60;;
20170;SDS011;10245;51.344;6.620;2023-03-17T03:19:56;3.13;;;2.67;;
20170;SDS011;10245;51.344;6.620;2023-03-17T03:22:20;4.55;;;2.80;;
20170;SDS011;10245;51.344;6.620;2023-03-17T03:24:43;4.05;;;2.63;;
20170;SDS011;10245;51.344;6.620;2023-03-17T03:27:07;5.65;;;2.40;;
20170;SDS011;10245;51.344;6.620;2023-03-17T03:29:31;3.92;;;2.80;;
20170;SDS011;10245;51.344;6.620;2023-03-17T03:31:55;3.13;;;2.53;;
20170;SDS011;10245;51.344;6.620;2023-03-17T03:34:19;5.40;;;2.50;;
20170;SDS011;10245;51.344;6.620;2023-03-17T03:36:42;4.32;;;2.60;;
20170;SDS011;10245;51.344;6.620;2023-03-17T03:39:06;5.50;;;2.50;;
20170;SDS011;10245;51.344;6.620;2023-03-17T03:41:30;4.28;;;2.55;;
20170;SDS011;10245;51.344;6.620;2023-03-17T03:43:53;4.85;;;2.60;;
20170;SDS011;10245;51.344;6.620;2023-03-17T03:46:17;3.83;;;2.70;;
20170;SDS011;10245;51.344;6.620;2023-03-17T03:48:41;4.75;;;2.58;;
20170;SDS011;10245;51.344;6.620;2023-03-17T03:51:04;3.92;;;2.42;;
20170;SDS011;10245;51.344;6.620;2023-03-17T03:53:28;3.50;;;2.50;;
20170;SDS011;10245;51.344;6.620;2023-03-17T03:55:52;3.63;;;2.25;;
20170;SDS011;10245;51.344;6.620;2023-03-17T03:58:16;4.15;;;2.42;;
20170;SDS011;10245;51.344;6.620;2023-03-17T04:00:40;4.75;;;2.63;;
20170;SDS011;10245;51.344;6.620;2023-03-17T04:03:04;5.25;;;2.45;;
20170;SDS011;10245;51.344;6.620;2023-03-17T04:05:28;3.88;;;2.58;;
20170;SDS011;10245;51.344;6.620;2023-03-17T04:07:52;4.75;;;2.63;;
20170;SDS011;10245;51.344;6.620;2023-03-17T04:10:15;3.60;;;2.63;;
20170;SDS011;10245;51.344;6.620;2023-03-17T04:12:39;3.72;;;2.65;;
20170;SDS011;10245;51.344;6.620;2023-03-17T04:15:03;6.22;;;2.70;;
20170;SDS011;10245;51.344;6.620;2023-03-17T04:17:29;4.15;;;2.40;;
20170;SDS011;10245;51.344;6.620;2023-03-17T04:19:54;4.38;;;2.30;;
20170;SDS011;10245;51.344;6.620;2023-03-17T04:22:17;3.63;;;2.22;;
20170;SDS011;10245;51.344;6.620;2023-03-17T04:24:41;3.53;;;2.40;;
20170;SDS011;10245;51.344;6.620;2023-03-17T04:27:04;4.20;;;2.50;;
20170;SDS011;10245;51.344;6.620;2023-03-17T04:29:28;4.20;;;2.60;;
20170;SDS011;10245;51.344;6.620;2023-03-17T04:31:51;5.07;;;2.50;;
20170;SDS011;10245;51.344;6.620;2023-03-17T04:34:15;5.28;;;2.40;;
20170;SDS011;10245;51.344;6.620;2023-03-17T04:36:41;6.57;;;2.60;;
20170;SDS011;10245;51.344;6.620;2023-03-17T04:39:05;5.75;;;2.83;;
20170;SDS011;10245;51.344;6.620;2023-03-17T04:41:28;3.85;;;2.70;;
20170;SDS011;10245;51.344;6.620;2023-03-17T04:43:52;6.13;;;2.78;;
20170;SDS011;10245;51.344;6.620;2023-03-17T04:46:15;3.40;;;2.38;;
20170;SDS011;10245;51.344;6.620;2023-03-17T04:48:39;3.85;;;2.60;;
20170;SDS011;10245;51.344;6.620;2023-03-17T04:51:02;4.25;;;2.50;;
20170;SDS011;10245;51.344;6.620;2023-03-17T04:53:27;4.70;;;2.97;;
20170;SDS011;10245;51.344;6.620;2023-03-17T04:55:51;3.95;;;2.97;;
20170;SDS011;10245;51.344;6.620;2023-03-17T04:58:14;5.43;;;2.72;;
20170;SDS011;10245;51.344;6.620;2023-03-17T05:00:51;5.80;;;2.97;;
20170;SDS011;10245;51.344;6.620;2023-03-17T05:03:14;4.22;;;2.83;;
20170;SDS011;10245;51.344;6.620;2023-03-17T05:05:48;5.53;;;2.80;;
20170;SDS011;10245;51.344;6.620;2023-03-17T05:08:11;5.00;;;2.92;;
20170;SDS011;10245;51.344;6.620;2023-03-17T05:10:36;5.75;;;3.00;;
20170;SDS011;10245;51.344;6.620;2023-03-17T05:12:59;6.68;;;2.70;;
20170;SDS011;10245;51.344;6.620;2023-03-17T05:15:22;5.40;;;2.90;;
20170;SDS011;10245;51.344;6.620;2023-03-17T05:17:46;3.22;;;2.60;;
20170;SDS011;10245;51.344;6.620;2023-03-17T05:20:10;4.50;;;3.10;;
20170;SDS011;10245;51.344;6.620;2023-03-17T05:22:34;3.78;;;2.80;;
20170;SDS011;10245;51.344;6.620;2023-03-17T05:24:58;5.80;;;2.97;;
20170;SDS011;10245;51.344;6.620;2023-03-17T05:27:23;4.40;;;2.75;;
20170;SDS011;10245;51.344;6.620;2023-03-17T05:29:46;5.95;;;3.30;;
20170;SDS011;10245;51.344;6.620;2023-03-17T05:32:10;6.25;;;2.75;;
20170;SDS011;10245;51.344;6.620;2023-03-17T05:34:33;6.47;;;3.00;;
20170;SDS011;10245;51.344;6.620;2023-03-17T05:36:57;4.18;;;2.78;;
20170;SDS011;10245;51.344;6.620;2023-03-17T05:39:20;4.35;;;2.85;;
20170;SDS011;10245;51.344;6.620;2023-03-17T05:41:43;8.15;;;2.90;;
20170;SDS011;10245;51.344;6.620;2023-03-17T05:44:08;5.15;;;2.72;;
20170;SDS011;10245;51.344;6.620;2023-03-17T05:46:31;6.38;;;2.92;;
20170;SDS011;10245;51.344;6.620;2023-03-17T05:48:55;4.10;;;3.15;;
20170;SDS011;10245;51.344;6.620;2023-03-17T05:51:18;4.15;;;2.90;;
20170;SDS011;10245;51.344;6.620;2023-03-17T05:53:43;7.28;;;3.08;;
20170;SDS011;10245;51.344;6.620;2023-03-17T05:56:06;5.43;;;2.90;;
20170;SDS011;10245;51.344;6.620;2023-03-17T05:58:30;5.85;;;3.00;;
20170;SDS011;10245;51.344;6.620;2023-03-17T06:00:55;5.60;;;2.80;;
20170;SDS011;10245;51.344;6.620;2023-03-17T06:03:18;4.30;;;2.80;;
20170;SDS011;10245;51.344;6.620;2023-03-17T06:05:42;4.72;;;3.20;;
20170;SDS011;10245;51.344;6.620;2023-03-17T06:08:06;5.43;;;3.15;;
20170;SDS011;10245;51.344;6.620;2023-03-17T06:10:30;5.00;;;2.92;;
20170;SDS011;10245;51.344;6.620;2023-03-17T06:12:54;6.68;;;3.28;;
20170;SDS011;10245;51.344;6.620;2023-03-17T06:15:17;6.15;;;2.92;;
20170;SDS011;10245;51.344;6.620;2023-03-17T06:17:42;5.30;;;2.90;;
20170;SDS011;10245;51.344;6.620;2023-03-17T06:20:06;4.22;;;2.85;;
20170;SDS011;10245;51.344;6.620;2023-03-17T06:22:30;5.35;;;3.20;;
20170;SDS011;10245;51.344;6.620;2023-03-17T06:24:54;6.68;;;3.33;;
20170;SDS011;10245;51.344;6.620;2023-03-17T06:27:17;5.88;;;3.17;;
20170;SDS011;10245;51.344;6.620;2023-03-17T06:29:40;5.07;;;3.60;;
20170;SDS011;10245;51.344;6.620;2023-03-17T06:32:04;7.53;;;4.47;;
20170;SDS011;10245;51.344;6.620;2023-03-17T06:34:42;6.30;;;3.55;;
20170;SDS011;10245;51.344;6.620;2023-03-17T06:37:06;4.70;;;3.58;;
20170;SDS011;10245;51.344;6.620;2023-03-17T06:39:32;5.32;;;2.85;;
20170;SDS011;10245;51.344;6.620;2023-03-17T06:41:56;5.72;;;3.30;;
20170;SDS011;10245;51.344;6.620;2023-03-17T06:44:19;7.72;;;3.40;;
20170;SDS011;10245;51.344;6.620;2023-03-17T06:46:43;4.75;;;2.83;;
20170;SDS011;10245;51.344;6.620;2023-03-17T06:49:07;6.30;;;3.42;;
20170;SDS011;10245;51.344;6.620;2023-03-17T06:51:35;6.85;;;3.65;;
20170;SDS011;10245;51.344;6.620;2023-03-17T06:53:58;6.32;;;3.13;;
20170;SDS011;10245;51.344;6.620;2023-03-17T06:56:21;5.60;;;3.35;;
20170;SDS011;10245;51.344;6.620;2023-03-17T06:58:50;7.22;;;3.08;;
20170;SDS011;10245;51.344;6.620;2023-03-17T07:01:14;5.80;;;3.22;;
20170;SDS011;10245;51.344;6.620;2023-03-17T07:03:38;7.18;;;4.15;;
20170;SDS011;10245;51.344;6.620;2023-03-17T07:06:01;4.80;;;2.70;;
20170;SDS011;10245;51.344;6.620;2023-03-17T07:08:26;4.05;;;2.85;;
20170;SDS011;10245;51.344;6.620;2023-03-17T07:10:53;5.78;;;2.80;;
20170;SDS011;10245;51.344;6.620;2023-03-17T07:13:17;5.43;;;2.95;;
20170;SDS011;10245;51.344;6.620;2023-03-17T07:15:43;4.78;;;3.00;;
20170;SDS011;10245;51.344;6.620;2023-03-17T07:18:06;5.47;;;2.85;;
20170;SDS011;10245;51.344;6.620;2023-03-17T07:20:30;5.22;;;3.13;;
20170;SDS011;10245;51.344;6.620;2023-03-17T07:22:54;8.10;;;3.58;;
20170;SDS011;10245;51.344;6.620;2023-03-17T07:25:18;5.95;;;2.83;;
20170;SDS011;10245;51.344;6.620;2023-03-17T07:27:42;5.80;;;2.95;;
20170;SDS011;10245;51.344;6.620;2023-03-17T07:30:06;5.47;;;2.85;;
20170;SDS011;10245;51.344;6.620;2023-03-17T07:32:31;5.45;;;3.03;;
20170;SDS011;10245;51.344;6.620;2023-03-17T07:34:55;6.47;;;2.80;;
20170;SDS011;10245;51.344;6.620;2023-03-17T07:37:19;4.72;;;3.25;;
20170;SDS011;10245;51.344;6.620;2023-03-17T07:39:43;6.25;;;3.20;;
20170;SDS011;10245;51.344;6.620;2023-03-17T07:42:09;4.25;;;3.47;;
20170;SDS011;10245;51.344;6.620;2023-03-17T07:44:36;4.25;;;3.00;;
20170;SDS011;10245;51.344;6.620;2023-03-17T07:47:01;5.97;;;3.00;;
20170;SDS011;10245;51.344;6.620;2023-03-17T07:49:25;7.85;;;3.35;;
20170;SDS011;10245;51.344;6.620;2023-03-17T07:52:02;5.10;;;3.00;;
20170;SDS011;10245;51.344;6.620;2023-03-17T07:54:26;4.50;;;3.10;;
20170;SDS011;10245;51.344;6.620;2023-03-17T07:56:49;5.85;;;3.03;;
20170;SDS011;10245;51.344;6.620;2023-03-17T07:59:14;4.60;;;3.00;;
20170;SDS011;10245;51.344;6.620;2023-03-17T08:01:38;5.43;;;3.28;;
20170;SDS011;10245;51.344;6.620;2023-03-17T08:04:02;4.03;;;2.78;;
20170;SDS011;10245;51.344;6.620;2023-03-17T08:06:26;6.93;;;2.53;;
20170;SDS011;10245;51.344;6.620;2023-03-17T08:08:50;4.88;;;3.30;;
20170;SDS011;10245;51.344;6.620;2023-03-17T08:11:14;5.43;;;3.28;;
20170;SDS011;10245;51.344;6.620;2023-03-17T08:13:38;7.30;;;2.50;;
20170;SDS011;10245;51.344;6.620;2023-03-17T08:16:03;5.07;;;2.70;;
20170;SDS011;10245;51.344;6.620;2023-03-17T08:18:27;7.75;;;3.42;;
20170;SDS011;10245;51.344;6.620;2023-03-17T08:20:51;4.85;;;2.90;;
20170;SDS011;10245;51.344;6.620;2023-03-17T08:23:14;6.28;;;3.63;;
20170;SDS011;10245;51.344;6.620;2023-03-17T08:25:38;7.90;;;3.30;;
20170;SDS011;10245;51.344;6.620;2023-03-17T08:28:01;6.20;;;3.28;;
20170;SDS011;10245;51.344;6.620;2023-03-17T08:30:25;4.90;;;3.50;;
20170;SDS011;10245;51.344;6.620;2023-03-17T08:32:54;6.40;;;3.20;;
20170;SDS011;10245;51.344;6.620;2023-03-17T08:35:18;4.57;;;2.92;;
20170;SDS011;10245;51.344;6.620;2023-03-17T08:37:41;5.20;;;3.20;;
20170;SDS011;10245;51.344;6.620;2023-03-17T08:40:05;5.53;;;3.40;;
20170;SDS011;10245;51.344;6.620;2023-03-17T08:42:30;6.55;;;2.85;;
20170;SDS011;10245;51.344;6.620;2023-03-17T08:44:54;4.80;;;3.20;;
20170;SDS011;10245;51.344;6.620;2023-03-17T08:47:17;3.88;;;3.05;;
20170;SDS011;10245;51.344;6.620;2023-03-17T08:49:41;3.75;;;2.75;;
20170;SDS011;10245;51.344;6.620;2023-03-17T08:52:06;3.80;;;2.78;;
20170;SDS011;10245;51.344;6.620;2023-03-17T08:54:29;5.95;;;3.28;;
20170;SDS011;10245;51.344;6.620;2023-03-17T08:56:52;6.13;;;3.42;;
20170;SDS011;10245;51.344;6.620;2023-03-17T08:59:16;4.97;;;2.67;;
20170;SDS011;10245;51.344;6.620;2023-03-17T09:01:40;4.13;;;2.75;;
20170;SDS011;10245;51.344;6.620;2023-03-17T09:04:05;5.55;;;2.90;;
20170;SDS011;10245;51.344;6.620;2023-03-17T09:06:30;6.90;;;3.28;;
20170;SDS011;10245;51.344;6.620;2023-03-17T09:08:53;6.55;;;3.00;;
20170;SDS011;10245;51.344;6.620;2023-03-17T09:11:18;7.55;;;3.55;;
20170;SDS011;10245;51.344;6.620;2023-03-17T09:13:44;3.47;;;3.03;;
20170;SDS011;10245;51.344;6.620;2023-03-17T09:16:09;5.30;;;3.03;;
20170;SDS011;10245;51.344;6.620;2023-03-17T09:18:32;6.85;;;3.17;;
20170;SDS011;10245;51.344;6.620;2023-03-17T09:20:56;7.65;;;3.47;;
20170;SDS011;10245;51.344;6.620;2023-03-17T09:23:20;5.63;;;3.03;;
20170;SDS011;10245;51.344;6.620;2023-03-17T09:25:44;4.13;;;3.03;;
20170;SDS011;10245;51.344;6.620;2023-03-17T09:28:08;3.97;;;2.65;;
20170;SDS011;10245;51.344;6.620;2023-03-17T09:30:34;7.10;;;3.15;;
20170;SDS011;10245;51.344;6.620;2023-03-17T09:32:57;4.63;;;2.83;;
20170;SDS011;10245;51.344;6.620;2023-03-17T09:35:21;6.60;;;3.30;;
20170;SDS011;10245;51.344;6.620;2023-03-17T09:37:46;3.63;;;3.00;;
20170;SDS011;10245;51.344;6.620;2023-03-17T09:40:13;4.82;;;2.60;;
20170;SDS011;10245;51.344;6.620;2023-03-17T09:42:41;4.63;;;3.22;;
20170;SDS011;10245;51.344;6.620;2023-03-17T09:45:18;5.22;;;3.28;;
20170;SDS011;10245;51.344;6.620;2023-03-17T09:47:51;8.60;;;3.05;;
20170;SDS011;10245;51.344;6.620;2023-03-17T09:50:31;5.97;;;2.70;;
20170;SDS011;10245;51.344;6.620;2023-03-17T09:53:02;8.20;;;2.95;;
20170;SDS011;10245;51.344;6.620;2023-03-17T09:55:29;7.05;;;2.90;;
20170;SDS011;10245;51.344;6.620;2023-03-17T09:57:54;6.05;;;2.97;;
20170;SDS011;10245;51.344;6.620;2023-03-17T10:00:19;5.47;;;3.30;;
20170;SDS011;10245;51.344;6.620;2023-03-17T10:02:47;4.97;;;3.38;;
20170;SDS011;10245;51.344;6.620;2023-03-17T10:05:15;6.85;;;2.63;;
20170;SDS011;10245;51.344;6.620;2023-03-17T10:07:43;5.53;;;2.88;;
20170;SDS011;10245;51.344;6.620;2023-03-17T10:10:14;8.52;;;3.10;;
20170;SDS011;10245;51.344;6.620;2023-03-17T10:12:45;6.43;;;3.50;;
20170;SDS011;10245;51.344;6.620;2023-03-17T10:15:20;7.00;;;3.45;;
20170;SDS011;10245;51.344;6.620;2023-03-17T10:17:51;5.30;;;2.95;;
20170;SDS011;10245;51.344;6.620;2023-03-17T10:20:15;6.88;;;3.13;;
20170;SDS011;10245;51.344;6.620;2023-03-17T10:22:44;6.03;;;3.25;;
20170;SDS011;10245;51.344;6.620;2023-03-17T10:25:12;6.40;;;3.05;;
20170;SDS011;10245;51.344;6.620;2023-03-17T10:27:37;6.55;;;2.92;;
20170;SDS011;10245;51.344;6.620;2023-03-17T10:30:03;5.88;;;2.85;;
20170;SDS011;10245;51.344;6.620;2023-03-17T10:32:32;5.43;;;3.30;;
20170;SDS011;10245;51.344;6.620;2023-03-17T10:35:01;5.47;;;2.92;;
20170;SDS011;10245;51.344;6.620;2023-03-17T10:37:25;8.38;;;2.95;;
20170;SDS011;10245;51.344;6.620;2023-03-17T10:39:55;4.82;;;2.78;;
20170;SDS011;10245;51.344;6.620;2023-03-17T10:42:20;7.47;;;3.53;;
20170;SDS011;10245;51.344;6.620;2023-03-17T10:44:47;12.02;;;3.55;;
20170;SDS011;10245;51.344;6.620;2023-03-17T10:47:21;6.22;;;3.35;;
20170;SDS011;10245;51.344;6.620;2023-03-17T10:49:50;5.05;;;3.08;;
20170;SDS011;10245;51.344;6.620;2023-03-17T10:52:17;5.53;;;3.40;;
20170;SDS011;10245;51.344;6.620;2023-03-17T10:54:45;4.85;;;2.88;;
20170;SDS011;10245;51.344;6.620;2023-03-17T10:57:10;6.57;;;3.28;;
20170;SDS011;10245;51.344;6.620;2023-03-17T10:59:40;6.50;;;3.10;;
20170;SDS011;10245;51.344;6.620;2023-03-17T11:02:11;6.93;;;3.03;;
20170;SDS011;10245;51.344;6.620;2023-03-17T11:04:45;6.40;;;3.00;;
20170;SDS011;10245;51.344;6.620;2023-03-17T11:07:14;8.57;;;3.80;;
20170;SDS011;10245;51.344;6.620;2023-03-17T11:09:39;4.22;;;2.90;;
20170;SDS011;10245;51.344;6.620;2023-03-17T11:12:04;6.03;;;3.22;;
20170;SDS011;10245;51.344;6.620;2023-03-17T11:14:29;6.78;;;2.97;;
20170;SDS011;10245;51.344;6.620;2023-03-17T11:16:53;5.90;;;3.00;;
20170;SDS011;10245;51.344;6.620;2023-03-17T11:19:21;8.73;;;3.42;;
20170;SDS011;10245;51.344;6.620;2023-03-17T11:22:00;8.40;;;3.40;;
20170;SDS011;10245;51.344;6.620;2023-03-17T11:24:32;6.18;;;3.17;;
20170;SDS011;10245;51.344;6.620;2023-03-17T11:27:03;10.65;;;2.83;;
20170;SDS011;10245;51.344;6.620;2023-03-17T11:29:40;7.57;;;3.20;;
20170;SDS011;10245;51.344;6.620;2023-03-17T11:32:33;3.67;;;2.67;;
20170;SDS011;10245;51.344;6.620;2023-03-17T11:35:09;4.95;;;2.80;;
20170;SDS011;10245;51.344;6.620;2023-03-17T11:38:02;8.50;;;3.28;;
20170;SDS011;10245;51.344;6.620;2023-03-17T11:40:40;7.57;;;2.78;;
20170;SDS011;10245;51.344;6.620;2023-03-17T11:43:22;6.07;;;3.03;;
20170;SDS011;10245;51.344;6.620;2023-03-17T11:45:56;6.30;;;3.28;;
20170;SDS011;10245;51.344;6.620;2023-03-17T11:48:30;7.05;;;3.03;;
20170;SDS011;10245;51.344;6.620;2023-03-17T11:51:07;4.38;;;2.88;;
20170;SDS011;10245;51.344;6.620;2023-03-17T11:53:49;6.45;;;3.30;;
20170;SDS011;10245;51.344;6.620;2023-03-17T11:56:30;6.28;;;3.20;;
20170;SDS011;10245;51.344;6.620;2023-03-17T11:59:01;7.63;;;3.17;;
20170;SDS011;10245;51.344;6.620;2023-03-17T12:01:28;5.45;;;2.85;;
20170;SDS011;10245;51.344;6.620;2023-03-17T12:04:08;7.60;;;3.35;;
20170;SDS011;10245;51.344;6.620;2023-03-17T12:06:42;5.40;;;2.88;;
20170;SDS011;10245;51.344;6.620;2023-03-17T12:09:13;7.82;;;3.10;;
20170;SDS011;10245;51.344;6.620;2023-03-17T12:11:47;8.73;;;3.40;;
20170;SDS011;10245;51.344;6.620;2023-03-17T12:14:13;5.40;;;2.70;;
20170;SDS011;10245;51.344;6.620;2023-03-17T12:16:48;10.48;;;3.08;;
20170;SDS011;10245;51.344;6.620;2023-03-17T12:19:16;7.25;;;2.78;;
20170;SDS011;10245;51.344;6.620;2023-03-17T12:21:47;7.50;;;3.28;;
20170;SDS011;10245;51.344;6.620;2023-03-17T12:24:16;4.90;;;2.90;;
20170;SDS011;10245;51.344;6.620;2023-03-17T12:26:46;7.55;;;3.20;;
20170;SDS011;10245;51.344;6.620;2023-03-17T12:29:18;5.75;;;2.78;;
20170;SDS011;10245;51.344;6.620;2023-03-17T12:31:49;3.85;;;2.70;;
20170;SDS011;10245;51.344;6.620;2023-03-17T12:34:18;6.38;;;2.75;;
20170;SDS011;10245;51.344;6.620;2023-03-17T12:36:48;5.18;;;2.70;;
20170;SDS011;10245;51.344;6.620;2023-03-17T12:39:12;3.63;;;2.72;;
20170;SDS011;10245;51.344;6.620;2023-03-17T12:41:41;5.13;;;2.85;;
20170;SDS011;10245;51.344;6.620;2023-03-17T12:44:25;10.07;;;2.60;;
20170;SDS011;10245;51.344;6.620;2023-03-17T12:47:14;7.45;;;2.80;;
20170;SDS011;10245;51.344;6.620;2023-03-17T12:50:01;3.83;;;2.97;;
20170;SDS011;10245;51.344;6.620;2023-03-17T12:53:10;7.97;;;2.80;;
20170;SDS011;10245;51.344;6.620;2023-03-17T12:55:48;5.65;;;2.80;;
20170;SDS011;10245;51.344;6.620;2023-03-17T12:58:18;6.22;;;2.70;;
20170;SDS011;10245;51.344;6.620;2023-03-17T13:00:54;4.75;;;2.65;;
20170;SDS011;10245;51.344;6.620;2023-03-17T13:03:24;6.38;;;2.35;;
20170;SDS011;10245;51.344;6.620;2023-03-17T13:05:51;5.03;;;2.47;;
20170;SDS011;10245;51.344;6.620;2023-03-17T13:08:24;5.97;;;2.50;;
20170;SDS011;10245;51.344;6.620;2023-03-17T13:10:57;4.72;;;2.47;;
20170;SDS011;10245;51.344;6.620;2023-03-17T13:13:44;5.47;;;2.80;;
20170;SDS011;10245;51.344;6.620;2023-03-17T13:16:27;6.88;;;2.65;;
20170;SDS011;10245;51.344;6.620;2023-03-17T13:19:05;7.07;;;2.75;;
20170;SDS011;10245;51.344;6.620;2023-03-17T13:21:35;5.03;;;2.35;;
20170;SDS011;10245;51.344;6.620;2023-03-17T13:27:12;4.88;;;2.30;;
20170;SDS011;10245;51.344;6.620;2023-03-17T13:33:18;4.00;;;2.38;;
20170;SDS011;10245;51.344;6.620;2023-03-17T13:35:46;5.97;;;2.55;;
20170;SDS011;10245;51.344;6.620;2023-03-17T13:41:48;7.40;;;2.42;;
20170;SDS011;10245;51.344;6.620;2023-03-17T13:44:52;5.38;;;2.30;;
20170;SDS011;10245;51.344;6.620;2023-03-17T13:47:32;4.70;;;2.17;;
20170;SDS011;10245;51.344;6.620;2023-03-17T13:49:59;6.80;;;2.38;;
20170;SDS011;10245;51.344;6.620;2023-03-17T13:52:30;5.07;;;2.53;;
20170;SDS011;10245;51.344;6.620;2023-03-17T13:55:00;6.72;;;3.05;;
20170;SDS011;10245;51.344;6.620;2023-03-17T13:57:30;4.93;;;2.50;;
20170;SDS011;10245;51.344;6.620;2023-03-17T14:00:03;6.97;;;2.65;;
20170;SDS011;10245;51.344;6.620;2023-03-17T14:02:44;5.03;;;2.50;;
20170;SDS011;10245;51.344;6.620;2023-03-17T14:05:16;4.28;;;2.47;;
20170;SDS011;10245;51.344;6.620;2023-03-17T14:07:45;6.07;;;2.30;;
20170;SDS011;10245;51.344;6.620;2023-03-17T14:10:15;6.72;;;2.65;;
20170;SDS011;10245;51.344;6.620;2023-03-17T14:12:43;5.15;;;2.67;;
20170;SDS011;10245;51.344;6.620;2023-03-17T14:15:14;5.93;;;2.55;;
20170;SDS011;10245;51.344;6.620;2023-03-17T14:17:43;6.40;;;2.40;;
20170;SDS011;10245;51.344;6.620;2023-03-17T14:20:18;5.25;;;2.33;;
20170;SDS011;10245;51.344;6.620;2023-03-17T14:22:46;5.72;;;2.85;;
20170;SDS011;10245;51.344;6.620;2023-03-17T14:25:15;6.43;;;2.80;;
20170;SDS011;10245;51.344;6.620;2023-03-17T14:27:46;3.95;;;2.22;;
20170;SDS011;10245;51.344;6.620;2023-03-17T14:30:17;5.18;;;2.10;;
20170;SDS011;10245;51.344;6.620;2023-03-17T14:32:44;7.10;;;2.17;;
20170;SDS011;10245;51.344;6.620;2023-03-17T14:35:11;8.20;;;2.25;;
20170;SDS011;10245;51.344;6.620;2023-03-17T14:37:36;5.88;;;2.10;;
20170;SDS011;10245;51.344;6.620;2023-03-17T14:39:59;5.85;;;2.90;;
20170;SDS011;10245;51.344;6.620;2023-03-17T14:42:24;6.45;;;2.55;;
20170;SDS011;10245;51.344;6.620;2023-03-17T14:44:58;7.15;;;2.33;;
20170;SDS011;10245;51.344;6.620;2023-03-17T14:47:23;4.50;;;2.22;;
20170;SDS011;10245;51.344;6.620;2023-03-17T14:49:47;6.68;;;2.40;;
20170;SDS011;10245;51.344;6.620;2023-03-17T14:52:18;4.85;;;2.22;;
20170;SDS011;10245;51.344;6.620;2023-03-17T14:54:47;8.20;;;2.30;;
20170;SDS011;10245;51.344;6.620;2023-03-17T14:57:13;5.32;;;2.28;;
20170;SDS011;10245;51.344;6.620;2023-03-17T14:59:37;6.03;;;2.42;;